createdAt,value
2023-05-11T00:01:47.684Z,99554.47
2023-05-11T00:05:49.635Z,99553.63
2023-05-11T00:09:51.321Z,99554.69
2023-05-11T00:13:53.031Z,99547.00
2023-05-11T00:17:54.757Z,99551.69
2023-05-11T00:21:56.407Z,99556.38
2023-05-11T00:25:58.152Z,99553.03
2023-05-11T00:29:59.825Z,99561.56
2023-05-11T00:34:01.653Z,99551.06
2023-05-11T00:38:03.589Z,99549.13
2023-05-11T00:42:05.602Z,99549.41
2023-05-11T00:46:09.265Z,99544.41
2023-05-11T00:50:11.331Z,99543.00
2023-05-11T00:54:15.642Z,99542.41
2023-05-11T00:58:17.870Z,99542.38
2023-05-11T01:02:20.359Z,99539.03
2023-05-11T01:06:36.023Z,99545.09
2023-05-11T01:10:59.623Z,99552.78
2023-05-11T01:15:09.309Z,99545.53
2023-05-11T01:19:42.285Z,99536.69
2023-05-11T01:24:18.398Z,99542.16
2023-05-11T01:29:04.812Z,99537.41
2023-05-11T01:33:12.182Z,99533.53
2023-05-11T01:37:21.972Z,99540.38
2023-05-11T01:41:24.870Z,99549.16
2023-05-11T01:45:28.061Z,99536.41
2023-05-11T01:49:34.136Z,99538.59
2023-05-11T01:53:39.639Z,99542.44
2023-05-11T01:57:41.636Z,99544.59
2023-05-11T02:01:43.429Z,99543.78
2023-05-11T02:05:49.129Z,99544.88
2023-05-11T02:09:51.822Z,99547.88
2023-05-11T02:13:57.045Z,99547.06
2023-05-11T02:18:00.022Z,99543.47
2023-05-11T02:22:03.293Z,99557.47
2023-05-11T02:26:06.466Z,99548.66
2023-05-11T02:30:08.872Z,99546.16
2023-05-11T02:34:28.858Z,99540.06
2023-05-11T02:38:34.993Z,99538.91
2023-05-11T02:42:42.757Z,99531.16
2023-05-11T02:46:47.795Z,99535.00
2023-05-11T02:50:52.435Z,99532.78
2023-05-11T02:54:56.976Z,99539.09
2023-05-11T02:58:59.098Z,99543.19
2023-05-11T03:03:02.329Z,99537.69
2023-05-11T03:07:04.426Z,99539.03
2023-05-11T03:11:06.563Z,99536.53
2023-05-11T03:15:12.101Z,99541.47
2023-05-11T03:19:16.839Z,99542.56
2023-05-11T03:23:19.829Z,99545.31
2023-05-11T03:27:23.112Z,99548.56
2023-05-11T03:31:24.945Z,99540.78
2023-05-11T03:35:29.349Z,99541.66
2023-05-11T03:39:33.227Z,99544.41
2023-05-11T03:43:38.396Z,99552.06
2023-05-11T03:47:42.591Z,99548.47
2023-05-11T03:51:46.356Z,99541.88
2023-05-11T03:55:50.122Z,99536.16
2023-05-11T03:59:51.808Z,99540.78
2023-05-11T04:03:53.885Z,99544.16
2023-05-11T04:07:57.599Z,99539.47
2023-05-11T04:11:59.717Z,99527.63
2023-05-11T04:16:02.739Z,99542.56
2023-05-11T04:20:06.007Z,99542.63
2023-05-11T04:24:08.126Z,99531.09
2023-05-11T04:28:09.755Z,99541.94
2023-05-11T04:32:11.383Z,99543.31
2023-05-11T04:36:13.519Z,99550.56
2023-05-11T04:40:15.418Z,99554.56
2023-05-11T04:44:19.150Z,99558.19
2023-05-11T04:48:21.194Z,99557.13
2023-05-11T04:52:24.434Z,99558.56
2023-05-11T04:56:26.536Z,99553.44
2023-05-11T05:00:31.701Z,99556.50
2023-05-11T05:04:36.152Z,99559.31
2023-05-11T05:08:38.208Z,99559.13
2023-05-11T05:12:40.285Z,99565.84
2023-05-11T05:16:42.041Z,99573.91
2023-05-11T05:20:45.604Z,99565.69
2023-05-11T05:24:49.107Z,99575.47
2023-05-11T05:28:50.920Z,99578.31
2023-05-11T05:32:55.302Z,99575.91
2023-05-11T05:36:57.096Z,99581.03
2023-05-11T05:40:59.520Z,99581.31
2023-05-11T05:45:03.853Z,99587.19
2023-05-11T05:49:05.989Z,99587.28
2023-05-11T05:53:09.106Z,99592.88
2023-05-11T05:57:12.763Z,99598.88
2023-05-11T06:01:16.623Z,99593.44
2023-05-11T06:05:19.375Z,99593.47
2023-05-11T06:09:21.446Z,99596.56
2023-05-11T06:13:23.206Z,99600.78
2023-05-11T06:17:25.807Z,99606.97
2023-05-11T06:21:27.624Z,99607.59
2023-05-11T06:25:29.558Z,99598.47
2023-05-11T06:29:31.314Z,99612.31
2023-05-11T06:33:33.645Z,99607.34
2023-05-11T06:37:36.752Z,99609.84
2023-05-11T06:41:39.095Z,99613.25
2023-05-11T06:45:41.986Z,99617.44
2023-05-11T06:49:47.099Z,99604.19
2023-05-11T06:53:49.001Z,99594.25
2023-05-11T06:57:50.682Z,99594.56
2023-05-11T07:01:52.456Z,99603.19
2023-05-11T07:05:56.089Z,99601.81
2023-05-11T07:09:57.850Z,99608.53
2023-05-11T07:13:59.603Z,99609.66
2023-05-11T07:18:01.677Z,99603.03
2023-05-11T07:22:04.111Z,99611.34
2023-05-11T07:26:09.275Z,99619.94
2023-05-11T07:30:11.465Z,99617.97
2023-05-11T07:34:13.266Z,99615.81
2023-05-11T07:38:14.996Z,99618.00
2023-05-11T07:42:16.703Z,99620.25
2023-05-11T07:46:18.365Z,99626.88
2023-05-11T07:50:23.940Z,99619.09
2023-05-11T07:54:26.407Z,99607.16
2023-05-11T07:58:28.164Z,99610.75
2023-05-11T08:02:30.631Z,99606.78
2023-05-11T08:06:32.655Z,99600.66
2023-05-11T08:10:36.029Z,99604.75
2023-05-11T08:14:38.091Z,99599.75
2023-05-11T08:18:39.966Z,99603.28
2023-05-11T08:22:41.775Z,99615.50
2023-05-11T08:26:44.137Z,99607.75
2023-05-11T08:30:45.839Z,99614.38
2023-05-11T08:34:47.752Z,99614.81
2023-05-11T08:38:49.504Z,99615.31
2023-05-11T08:42:59.715Z,99609.53
2023-05-11T08:47:21.085Z,99614.63
2023-05-11T08:51:26.076Z,99619.44
2023-05-11T08:55:31.877Z,99618.75
2023-05-11T08:59:34.425Z,99622.50
2023-05-11T09:03:37.321Z,99617.69
2023-05-11T09:07:42.142Z,99606.00
2023-05-11T09:11:45.315Z,99625.47
2023-05-11T09:15:47.037Z,99624.53
2023-05-11T09:20:00.150Z,99619.25
2023-05-11T09:24:02.555Z,99615.09
2023-05-11T09:28:04.470Z,99610.91
2023-05-11T09:32:06.552Z,99615.97
2023-05-11T09:36:22.710Z,99617.63
2023-05-11T09:40:27.677Z,99617.63
2023-05-11T09:44:35.524Z,99623.09
2023-05-11T09:48:37.893Z,99619.25
2023-05-11T09:52:50.059Z,99617.44
2023-05-11T09:56:58.426Z,99612.25
2023-05-11T10:01:00.204Z,99604.53
2023-05-11T10:05:12.183Z,99615.97
2023-05-11T10:09:15.982Z,99616.81
2023-05-11T10:13:17.689Z,99613.09
2023-05-11T10:17:20.765Z,99619.47
2023-05-11T10:21:24.949Z,99617.81
2023-05-11T10:25:26.816Z,99615.63
2023-05-11T10:29:30.229Z,99610.88
2023-05-11T10:33:32.974Z,99607.84
2023-05-11T10:37:35.603Z,99618.16
2023-05-11T10:41:41.752Z,99606.44
2023-05-11T10:46:08.868Z,99600.00
2023-05-11T10:50:24.089Z,99603.84
2023-05-11T10:54:46.683Z,99602.91
2023-05-11T10:59:06.683Z,99599.78
2023-05-11T11:03:12.979Z,99606.59
2023-05-11T11:07:19.808Z,99598.66
2023-05-11T11:11:43.110Z,99595.81
2023-05-11T11:15:54.457Z,99597.25
2023-05-11T11:19:57.486Z,99597.56
2023-05-11T11:24:03.110Z,99594.09
2023-05-11T11:28:05.490Z,99588.91
2023-05-11T11:32:26.127Z,99586.88
2023-05-11T11:37:13.728Z,99590.59
2023-05-11T11:41:29.411Z,99584.56
2023-05-11T11:45:32.853Z,99586.31
2023-05-11T11:49:35.906Z,99584.97
2023-05-11T11:53:39.096Z,99578.25
2023-05-11T11:57:51.198Z,99577.19
2023-05-11T12:01:54.854Z,99579.91
2023-05-11T12:06:01.814Z,99574.06
2023-05-11T12:10:05.135Z,99567.72
2023-05-11T12:14:09.337Z,99568.34
2023-05-11T12:18:32.881Z,99567.84
2023-05-11T12:22:36.646Z,99570.03
2023-05-11T12:26:38.303Z,99562.66
2023-05-11T12:30:40.088Z,99555.13
2023-05-11T12:34:42.451Z,99556.06
2023-05-11T12:38:48.335Z,99559.03
2023-05-11T12:42:58.005Z,99554.00
2023-05-11T12:47:02.090Z,99551.22
2023-05-11T12:51:04.853Z,99553.09
2023-05-11T12:55:06.964Z,99544.00
2023-05-11T12:59:27.608Z,99545.00
2023-05-11T13:03:32.213Z,99539.41
2023-05-11T13:07:34.152Z,99543.94
2023-05-11T13:11:36.552Z,99545.25
2023-05-11T13:15:52.554Z,99542.59
2023-05-11T13:19:54.308Z,99535.00
2023-05-11T13:23:56.684Z,99534.78
2023-05-11T13:27:59.111Z,99533.72
2023-05-11T13:32:02.092Z,99534.03
2023-05-11T13:36:04.047Z,99537.31
2023-05-11T13:40:12.195Z,99536.50
2023-05-11T13:44:14.648Z,99535.06
2023-05-11T13:48:16.871Z,99534.44
2023-05-11T13:52:18.672Z,99534.28
2023-05-11T13:56:21.461Z,99529.19
2023-05-11T14:00:23.185Z,99522.44
2023-05-11T14:04:26.092Z,99524.75
2023-05-11T14:08:28.112Z,99528.00
2023-05-11T14:12:30.522Z,99522.41
2023-05-11T14:16:32.269Z,99518.44
2023-05-11T14:20:43.010Z,99514.88
2023-05-11T14:24:46.574Z,99521.31
2023-05-11T14:28:48.199Z,99521.34
2023-05-11T14:32:52.700Z,99515.44
2023-05-11T14:36:55.259Z,99525.66
2023-05-11T14:40:59.108Z,99526.72
2023-05-11T14:45:01.108Z,99515.13
2023-05-11T14:49:02.885Z,99518.78
2023-05-11T14:53:04.625Z,99514.66
2023-05-11T14:57:07.683Z,99509.13
2023-05-11T15:01:10.686Z,99506.94
2023-05-11T15:05:13.984Z,99510.28
2023-05-11T15:09:16.645Z,99514.16
2023-05-11T15:13:19.796Z,99516.09
2023-05-11T15:17:22.650Z,99513.03
2023-05-11T15:21:25.087Z,99516.38
2023-05-11T15:25:27.005Z,99526.84
2023-05-11T15:29:29.689Z,99518.81
2023-05-11T15:33:32.634Z,99517.44
2023-05-11T15:37:34.905Z,99520.47
2023-05-11T15:41:37.105Z,99520.41
2023-05-11T15:45:38.757Z,99523.16
2023-05-11T15:49:41.073Z,99515.97
2023-05-11T15:53:46.089Z,99517.03
2023-05-11T15:57:47.773Z,99522.25
2023-05-11T16:01:51.313Z,99516.41
2023-05-11T16:05:53.510Z,99514.16
2023-05-11T16:09:56.108Z,99515.78
2023-05-11T16:13:58.629Z,99515.97
2023-05-11T16:18:04.677Z,99512.94
2023-05-11T16:22:08.203Z,99513.56
2023-05-11T16:26:10.186Z,99507.25
2023-05-11T16:30:23.125Z,99518.91
2023-05-11T16:34:27.369Z,99508.13
2023-05-11T16:38:29.121Z,99508.16
2023-05-11T16:42:32.337Z,99508.16
2023-05-11T16:46:34.020Z,99509.28
2023-05-11T16:50:37.124Z,99502.34
2023-05-11T16:54:42.103Z,99506.78
2023-05-11T16:58:44.015Z,99508.75
2023-05-11T17:02:46.410Z,99499.94
2023-05-11T17:06:49.102Z,99510.75
2023-05-11T17:10:56.096Z,99503.28
2023-05-11T17:15:00.819Z,99505.53
2023-05-11T17:19:02.834Z,99507.22
2023-05-11T17:23:04.916Z,99505.81
2023-05-11T17:27:06.652Z,99505.56
2023-05-11T17:31:10.348Z,99505.56
2023-05-11T17:35:12.232Z,99507.78
2023-05-11T17:39:16.812Z,99509.72
2023-05-11T17:43:19.453Z,99513.88
2023-05-11T17:47:21.477Z,99513.63
2023-05-11T17:51:23.281Z,99518.31
2023-05-11T17:55:25.716Z,99521.94
2023-05-11T17:59:28.542Z,99520.53
2023-05-11T18:03:33.681Z,99535.19
2023-05-11T18:11:55.284Z,99524.34
2023-05-11T18:15:57.676Z,99529.06
2023-05-11T18:20:05.232Z,99532.06
2023-05-11T18:24:10.793Z,99535.69
2023-05-11T18:28:12.519Z,99537.34
2023-05-11T18:32:14.683Z,99538.41
2023-05-11T18:36:16.563Z,99527.34
2023-05-11T18:40:20.399Z,99531.75
2023-05-11T18:44:23.212Z,99532.59
2023-05-11T18:48:32.632Z,99537.00
2023-05-11T18:52:36.411Z,99530.66
2023-05-11T19:42:23.567Z,99567.03
2023-05-11T19:46:33.974Z,99568.94
2023-05-11T19:50:35.995Z,99563.69
2023-05-11T19:54:37.816Z,99575.00
2023-05-11T19:58:42.129Z,99583.31
2023-05-11T20:02:45.209Z,99577.53
2023-05-11T20:06:47.116Z,99578.06
2023-05-11T20:10:48.839Z,99581.41
2023-05-11T20:14:53.085Z,99578.63
2023-05-11T20:18:54.897Z,99578.63
2023-05-11T20:22:58.739Z,99584.16
2023-05-11T20:27:05.801Z,99580.84
2023-05-11T20:31:09.742Z,99573.38
2023-05-11T20:35:11.495Z,99567.03
2023-05-11T20:39:14.703Z,99572.56
2023-05-11T20:43:17.080Z,99571.75
2023-05-11T20:47:19.726Z,99565.94
2023-05-11T20:51:23.669Z,99563.97
2023-05-11T20:55:26.428Z,99565.59
2023-05-11T21:03:38.140Z,99560.63
2023-05-11T21:07:40.675Z,99555.09
2023-05-11T21:11:42.507Z,99560.06
2023-05-11T21:15:44.484Z,99546.50
2023-05-11T21:19:46.743Z,99558.69
2023-05-11T21:23:48.858Z,99553.97
2023-05-11T21:27:55.897Z,99547.34
2023-05-11T21:31:57.758Z,99548.72
2023-05-11T21:35:59.768Z,99553.41
2023-05-11T22:30:22.191Z,99556.09
2023-05-11T22:34:25.952Z,99550.84
2023-05-11T22:38:35.102Z,99543.91
2023-05-11T22:42:43.586Z,99551.63
2023-05-11T22:46:47.056Z,99549.97
2023-05-11T22:50:55.120Z,99550.22
2023-05-11T22:55:04.326Z,99551.59
2023-05-11T22:59:07.206Z,99542.72
2023-05-11T23:08:34.728Z,99550.19
2023-05-11T23:13:00.862Z,99549.06
2023-05-11T23:17:08.872Z,99548.00
2023-05-11T23:21:14.843Z,99546.88
2023-05-11T23:25:17.636Z,99541.09
2023-05-11T23:29:21.716Z,99545.25
2023-05-11T23:33:24.705Z,99544.41
2023-05-11T23:37:32.439Z,99545.78
2023-05-11T23:41:35.158Z,99541.09
2023-05-11T23:45:38.350Z,99541.09
2023-05-11T23:49:41.064Z,99539.19
2023-05-11T23:53:43.949Z,99533.66
2023-05-11T23:57:52.302Z,99533.09
